createdAt,value
2024-02-10T00:00:21.074Z,33.70
2024-02-10T00:03:11.363Z,32.90
2024-02-10T00:05:40.676Z,26.20
2024-02-10T00:08:08.634Z,31.40
2024-02-10T00:10:36.467Z,34.10
2024-02-10T00:13:04.735Z,33.30
2024-02-10T00:15:32.464Z,29.00
2024-02-10T00:18:00.349Z,30.00
2024-02-10T00:20:29.765Z,31.50
2024-02-10T00:22:57.990Z,30.00
2024-02-10T00:25:26.150Z,31.80
2024-02-10T00:27:55.407Z,31.50
2024-02-10T00:30:24.732Z,33.60
2024-02-10T00:32:53.558Z,33.60
2024-02-10T00:35:23.399Z,31.90
2024-02-10T00:37:51.848Z,33.40
2024-02-10T00:40:19.804Z,33.00
2024-02-10T00:42:47.704Z,37.20
2024-02-10T00:45:15.825Z,33.70
2024-02-10T00:47:46.220Z,32.90
2024-02-10T00:50:17.013Z,37.60
2024-02-10T00:52:49.639Z,37.10
2024-02-10T00:55:18.552Z,37.50
2024-02-10T00:57:48.044Z,33.20
2024-02-10T01:00:19.603Z,32.90
2024-02-10T01:02:47.620Z,33.50
2024-02-10T01:05:16.018Z,36.70
2024-02-10T01:07:47.396Z,34.70
2024-02-10T01:10:15.794Z,35.70
2024-02-10T01:12:43.712Z,31.40
2024-02-10T01:15:11.482Z,33.40
2024-02-10T01:17:39.268Z,36.20
2024-02-10T01:20:08.464Z,37.30
2024-02-10T01:22:36.365Z,34.90
2024-02-10T01:25:05.727Z,35.10
2024-02-10T01:27:33.478Z,33.80
2024-02-10T01:30:04.610Z,33.40
2024-02-10T01:32:33.979Z,33.90
2024-02-10T01:35:05.152Z,34.80
2024-02-10T01:37:33.113Z,30.90
2024-02-10T01:40:02.604Z,35.10
2024-02-10T01:42:40.600Z,37.70
2024-02-10T01:45:13.565Z,37.60
2024-02-10T01:47:45.993Z,35.70
2024-02-10T01:50:15.052Z,31.20
2024-02-10T01:52:44.513Z,34.70
2024-02-10T01:55:12.594Z,34.00
2024-02-10T01:57:40.885Z,40.30
2024-02-10T02:00:15.284Z,38.50
2024-02-10T02:02:43.440Z,34.40
2024-02-10T02:05:11.328Z,38.20
2024-02-10T02:07:40.306Z,38.00
2024-02-10T02:10:10.322Z,32.50
2024-02-10T02:12:49.552Z,35.30
2024-02-10T02:15:19.018Z,38.90
2024-02-10T02:17:50.910Z,39.70
2024-02-10T02:20:19.230Z,34.60
2024-02-10T02:22:53.599Z,33.00
2024-02-10T02:25:22.779Z,35.70
2024-02-10T02:27:50.677Z,40.70
2024-02-10T02:30:19.051Z,37.70
2024-02-10T02:32:49.168Z,34.70
2024-02-10T02:35:17.064Z,33.60
2024-02-10T02:37:44.976Z,34.30
2024-02-10T02:40:16.195Z,40.80
2024-02-10T02:42:44.051Z,35.50
2024-02-10T02:45:12.287Z,36.90
2024-02-10T02:47:40.359Z,40.60
2024-02-10T02:50:16.280Z,37.40
2024-02-10T02:52:45.634Z,36.50
2024-02-10T02:55:13.834Z,41.70
2024-02-10T02:57:41.797Z,42.30
2024-02-10T03:00:10.128Z,36.30
2024-02-10T03:02:43.556Z,44.10
2024-02-10T03:05:12.660Z,38.00
2024-02-10T03:07:45.450Z,33.80
2024-02-10T03:10:14.320Z,41.50
2024-02-10T03:12:43.030Z,36.90
2024-02-10T03:15:11.352Z,35.40
2024-02-10T03:17:39.728Z,36.20
2024-02-10T03:20:08.120Z,36.30
2024-02-10T03:22:37.586Z,37.50
2024-02-10T03:25:06.224Z,34.90
2024-02-10T03:27:34.123Z,30.80
2024-02-10T03:30:02.046Z,34.40
2024-02-10T03:32:34.093Z,41.60
2024-02-10T03:35:02.408Z,41.20
2024-02-10T03:37:30.571Z,34.80
2024-02-10T03:39:58.609Z,35.60
2024-02-10T03:42:26.574Z,35.80
2024-02-10T03:44:56.256Z,38.20
2024-02-10T03:47:27.134Z,36.50
2024-02-10T03:49:55.083Z,33.90
2024-02-10T03:52:26.902Z,32.10
2024-02-10T03:54:54.965Z,29.70
2024-02-10T03:57:22.945Z,30.40
2024-02-10T03:59:51.302Z,31.40
2024-02-10T04:02:20.007Z,31.50
2024-02-10T04:04:48.120Z,29.30
2024-02-10T04:07:17.759Z,29.60
2024-02-10T04:09:48.047Z,28.20
2024-02-10T04:12:15.868Z,24.00
2024-02-10T04:14:43.707Z,27.30
2024-02-10T04:17:12.512Z,26.00
2024-02-10T04:19:40.450Z,25.60
2024-02-10T04:22:10.384Z,25.30
2024-02-10T04:24:38.319Z,24.90
2024-02-10T04:27:07.555Z,28.60
2024-02-10T04:29:37.285Z,30.10
2024-02-10T04:32:05.621Z,25.50
2024-02-10T04:34:33.390Z,23.90
2024-02-10T04:37:01.180Z,25.30
2024-02-10T04:39:28.949Z,23.20
2024-02-10T04:41:56.652Z,23.90
2024-02-10T04:44:24.543Z,27.00
2024-02-10T04:46:53.069Z,24.90
2024-02-10T04:49:21.201Z,17.80
2024-02-10T04:51:49.072Z,23.60
2024-02-10T04:54:16.710Z,19.80
2024-02-10T04:56:44.594Z,18.90
2024-02-10T04:59:19.680Z,23.50
2024-02-10T05:01:47.302Z,23.20
2024-02-10T05:04:15.774Z,20.20
2024-02-10T05:06:44.036Z,21.40
2024-02-10T05:09:15.184Z,21.80
2024-02-10T05:11:43.047Z,19.90
2024-02-10T05:14:12.068Z,21.10
2024-02-10T05:16:40.171Z,19.20
2024-02-10T05:19:08.092Z,13.80
2024-02-10T05:21:38.669Z,21.10
2024-02-10T05:24:14.075Z,19.50
2024-02-10T05:26:43.952Z,16.80
2024-02-10T05:29:12.681Z,16.80
2024-02-10T05:31:41.474Z,17.60
2024-02-10T05:34:17.061Z,20.60
2024-02-10T05:36:44.937Z,15.50
2024-02-10T05:39:17.894Z,16.80
2024-02-10T05:41:49.559Z,18.70
2024-02-10T05:44:17.428Z,17.50
2024-02-10T05:46:46.034Z,15.70
2024-02-10T05:49:13.880Z,17.90
2024-02-10T05:51:41.566Z,16.30
2024-02-10T05:54:09.315Z,18.80
2024-02-10T05:56:37.048Z,19.30
2024-02-10T05:59:07.978Z,19.60
2024-02-10T06:01:37.392Z,18.70
2024-02-10T06:04:11.377Z,23.60
2024-02-10T06:06:42.130Z,18.80
2024-02-10T06:09:10.090Z,18.20
2024-02-10T06:11:37.750Z,17.90
2024-02-10T06:14:08.950Z,19.10
2024-02-10T06:16:41.966Z,20.90
2024-02-10T06:19:09.930Z,16.60
2024-02-10T06:21:37.701Z,15.70
2024-02-10T06:24:05.640Z,16.80
2024-02-10T06:26:38.613Z,18.30
2024-02-10T06:29:09.328Z,16.90
2024-02-10T06:31:37.162Z,18.00
2024-02-10T06:34:05.620Z,17.90
2024-02-10T06:36:33.444Z,13.80
2024-02-10T06:39:01.796Z,16.50
2024-02-10T06:41:29.633Z,19.80
2024-02-10T06:43:57.474Z,17.00
2024-02-10T06:46:25.275Z,18.10
2024-02-10T06:48:53.022Z,19.20
2024-02-10T06:51:23.099Z,17.20
2024-02-10T06:53:52.255Z,17.60
2024-02-10T06:56:22.198Z,17.00
2024-02-10T06:58:50.445Z,14.90
2024-02-10T07:01:18.757Z,16.50
2024-02-10T07:03:47.535Z,17.00
2024-02-10T07:06:19.112Z,17.00
2024-02-10T07:08:47.063Z,16.70
2024-02-10T07:11:14.740Z,16.20
2024-02-10T07:13:42.672Z,16.80
2024-02-10T07:16:10.556Z,16.80
2024-02-10T07:18:43.010Z,17.20
2024-02-10T07:21:10.994Z,14.30
2024-02-10T07:23:41.110Z,9.90
2024-02-10T07:26:09.167Z,13.10
2024-02-10T07:28:36.864Z,17.50
2024-02-10T07:31:04.777Z,14.00
2024-02-10T07:33:32.734Z,16.10
2024-02-10T07:36:01.527Z,12.50
2024-02-10T07:38:29.295Z,13.60
2024-02-10T07:40:57.236Z,16.40
2024-02-10T07:43:25.289Z,14.10
2024-02-10T07:45:53.875Z,16.30
2024-02-10T07:48:22.481Z,12.80
2024-02-10T07:50:50.805Z,12.30
2024-02-10T07:53:18.553Z,14.40
2024-02-10T07:55:48.437Z,11.20
2024-02-10T07:58:17.309Z,13.40
2024-02-10T08:00:45.911Z,14.60
2024-02-10T08:03:13.904Z,13.90
2024-02-10T08:05:43.648Z,14.40
2024-02-10T08:08:12.132Z,14.80
2024-02-10T08:10:40.434Z,15.40
2024-02-10T08:13:10.193Z,10.70
2024-02-10T08:15:38.276Z,11.00
2024-02-10T08:18:10.698Z,12.00
2024-02-10T08:20:41.756Z,12.70
2024-02-10T08:23:14.212Z,10.60
2024-02-10T08:25:45.162Z,13.10
2024-02-10T08:28:12.934Z,10.20
2024-02-10T08:30:40.859Z,13.30
2024-02-10T08:33:08.762Z,13.10
2024-02-10T08:35:37.766Z,8.60
2024-02-10T08:38:05.746Z,10.30
2024-02-10T08:40:33.686Z,11.50
2024-02-10T08:43:01.547Z,12.20
2024-02-10T08:45:29.603Z,10.80
2024-02-10T08:47:57.443Z,12.70
2024-02-10T08:50:25.155Z,13.40
2024-02-10T08:52:53.144Z,10.60
2024-02-10T08:55:23.954Z,10.60
2024-02-10T08:57:51.936Z,9.90
2024-02-10T09:00:20.999Z,11.90
2024-02-10T09:02:52.288Z,10.90
2024-02-10T09:05:20.521Z,12.20
2024-02-10T09:07:48.326Z,10.10
2024-02-10T09:10:16.212Z,11.60
2024-02-10T09:12:45.923Z,13.30
2024-02-10T09:15:13.641Z,11.60
2024-02-10T09:17:41.518Z,10.90
2024-02-10T09:20:10.079Z,9.80
2024-02-10T09:22:38.019Z,11.00
2024-02-10T09:25:06.514Z,11.70
2024-02-10T09:27:35.076Z,13.50
2024-02-10T09:30:04.499Z,11.50
2024-02-10T09:32:32.352Z,13.10
2024-02-10T09:35:05.520Z,13.70
2024-02-10T09:37:33.330Z,9.60
2024-02-10T09:40:01.279Z,12.80
2024-02-10T09:42:31.750Z,12.90
2024-02-10T09:44:59.735Z,11.70
2024-02-10T09:47:27.518Z,10.80
2024-02-10T09:50:05.329Z,12.10
2024-02-10T09:52:36.600Z,11.80
2024-02-10T09:55:08.477Z,11.40
2024-02-10T09:57:38.639Z,12.40
2024-02-10T10:00:06.965Z,12.00
2024-02-10T10:02:35.413Z,12.60
2024-02-10T10:05:03.623Z,11.50
2024-02-10T10:07:32.835Z,12.90
2024-02-10T10:10:00.569Z,11.20
2024-02-10T10:12:28.343Z,6.40
2024-02-10T10:14:56.048Z,10.20
2024-02-10T10:17:34.582Z,11.50
2024-02-10T10:20:11.836Z,10.80
2024-02-10T10:22:40.219Z,11.80
2024-02-10T10:25:10.304Z,12.30
2024-02-10T10:27:39.956Z,12.30
2024-02-10T10:30:13.308Z,9.00
2024-02-10T10:32:43.715Z,11.50
2024-02-10T10:35:12.834Z,10.40
2024-02-10T10:37:40.742Z,13.00
2024-02-10T10:40:11.859Z,11.00
2024-02-10T10:42:42.561Z,12.00
2024-02-10T10:45:10.930Z,11.00
2024-02-10T10:47:42.404Z,12.90
2024-02-10T10:50:10.995Z,12.30
2024-02-10T10:52:43.502Z,13.00
2024-02-10T10:55:17.027Z,11.90
2024-02-10T10:57:51.357Z,12.80
2024-02-10T11:00:22.375Z,12.30
2024-02-10T11:02:54.344Z,16.00
2024-02-10T11:05:25.121Z,14.20
2024-02-10T11:08:03.229Z,15.80
2024-02-10T11:10:39.305Z,13.30
2024-02-10T11:13:09.009Z,12.60
2024-02-10T11:15:42.146Z,13.70
2024-02-10T11:18:21.237Z,14.90
2024-02-10T11:20:49.130Z,15.40
2024-02-10T11:23:22.288Z,13.30
2024-02-10T11:25:53.966Z,13.00
2024-02-10T11:28:23.301Z,11.90
2024-02-10T11:30:51.688Z,11.40
2024-02-10T11:33:24.650Z,15.50
2024-02-10T11:35:56.403Z,10.00
2024-02-10T11:38:27.456Z,13.50
2024-02-10T11:40:55.437Z,11.30
2024-02-10T11:43:23.752Z,14.90
2024-02-10T11:45:51.479Z,11.50
2024-02-10T11:48:19.344Z,12.70
2024-02-10T11:53:18.840Z,15.20
2024-02-10T11:55:49.384Z,13.50
2024-02-10T11:58:19.478Z,15.50
2024-02-10T12:00:47.562Z,14.60
2024-02-10T12:03:22.210Z,13.10
2024-02-10T12:05:50.394Z,13.50
2024-02-10T12:08:18.610Z,16.40
2024-02-10T12:10:46.459Z,13.00
2024-02-10T12:13:21.143Z,17.00
2024-02-10T12:15:49.032Z,12.10
2024-02-10T12:18:18.656Z,12.00
2024-02-10T12:20:52.513Z,13.80
2024-02-10T12:23:20.397Z,16.40
2024-02-10T12:25:48.173Z,17.80
2024-02-10T12:28:16.018Z,14.60
2024-02-10T12:30:43.726Z,16.10
2024-02-10T12:33:12.230Z,17.00
2024-02-10T12:35:41.274Z,16.60
2024-02-10T12:38:09.234Z,14.20
2024-02-10T12:40:37.926Z,13.00
2024-02-10T12:43:05.891Z,18.40
2024-02-10T12:45:39.066Z,17.90
2024-02-10T12:48:10.022Z,17.10
2024-02-10T12:50:37.949Z,16.20
2024-02-10T12:53:05.792Z,18.40
2024-02-10T12:55:33.580Z,17.30
2024-02-10T12:58:02.295Z,16.70
2024-02-10T13:00:30.221Z,16.80
2024-02-10T13:02:58.334Z,16.70
2024-02-10T13:05:29.149Z,17.80
2024-02-10T13:07:57.175Z,17.60
2024-02-10T13:10:29.893Z,19.50
2024-02-10T13:12:59.791Z,18.20
2024-02-10T13:15:27.816Z,16.70
2024-02-10T13:17:58.916Z,20.30
2024-02-10T13:20:28.434Z,16.60
2024-02-10T13:22:59.800Z,13.20
2024-02-10T13:25:29.113Z,17.40
2024-02-10T13:27:57.317Z,16.00
2024-02-10T13:30:25.531Z,16.00
2024-02-10T13:32:59.525Z,17.90
2024-02-10T13:35:29.541Z,16.40
2024-02-10T13:38:16.204Z,18.90
2024-02-10T13:41:02.543Z,18.10
2024-02-10T13:43:49.525Z,17.80
2024-02-10T13:46:35.892Z,17.30
2024-02-10T13:49:22.227Z,15.50
2024-02-10T13:52:08.952Z,18.60
2024-02-10T13:54:57.036Z,20.30
2024-02-10T13:57:44.329Z,18.40
2024-02-10T14:00:31.729Z,18.40
2024-02-10T14:03:03.176Z,20.70
2024-02-10T14:05:51.801Z,21.80
2024-02-10T14:08:39.107Z,19.00
2024-02-10T14:11:21.783Z,20.40
2024-02-10T14:13:55.067Z,17.10
2024-02-10T14:16:35.225Z,18.60
2024-02-10T14:19:14.086Z,17.30
2024-02-10T14:21:44.573Z,18.10
2024-02-10T14:24:16.917Z,16.80
2024-02-10T14:27:02.787Z,15.00
2024-02-10T14:29:35.171Z,19.00
2024-02-10T14:32:11.336Z,18.40
2024-02-10T14:35:00.657Z,19.00
2024-02-10T14:37:32.293Z,16.40
2024-02-10T14:40:01.206Z,16.80
2024-02-10T14:42:29.710Z,16.60
2024-02-10T14:44:57.536Z,13.40
2024-02-10T14:47:26.104Z,10.50
2024-02-10T14:49:54.413Z,17.20
2024-02-10T14:52:23.848Z,12.50
2024-02-10T14:54:52.096Z,11.60
2024-02-10T14:57:22.940Z,15.00
2024-02-10T14:59:52.413Z,12.80
2024-02-10T15:02:23.785Z,11.20
2024-02-10T15:04:52.431Z,11.40
2024-02-10T15:07:23.433Z,11.80
2024-02-10T15:09:52.546Z,10.50
2024-02-10T15:12:20.345Z,11.70
2024-02-10T15:14:48.244Z,10.20
2024-02-10T15:17:17.998Z,10.80
2024-02-10T15:19:46.636Z,9.00
2024-02-10T15:22:16.591Z,10.50
2024-02-10T15:24:44.832Z,10.50
2024-02-10T15:27:16.855Z,10.00
2024-02-10T15:29:44.719Z,8.20
2024-02-10T15:32:12.798Z,9.40
2024-02-10T15:34:48.473Z,8.80
2024-02-10T15:37:26.075Z,9.50
2024-02-10T15:39:53.934Z,7.80
2024-02-10T15:42:21.915Z,9.40
2024-02-10T15:44:51.701Z,9.80
2024-02-10T15:47:19.766Z,8.70
2024-02-10T15:49:50.941Z,12.30
2024-02-10T15:52:20.723Z,7.50
2024-02-10T15:54:48.717Z,9.70
2024-02-10T15:57:16.549Z,11.20
2024-02-10T15:59:44.369Z,8.10
2024-02-10T16:02:12.697Z,7.10
2024-02-10T16:04:43.617Z,8.10
2024-02-10T16:07:12.140Z,9.70
2024-02-10T16:09:39.958Z,7.70
2024-02-10T16:12:10.133Z,11.40
2024-02-10T16:14:38.732Z,8.70
2024-02-10T16:17:07.096Z,8.30
2024-02-10T16:19:41.092Z,7.80
2024-02-10T16:22:09.424Z,9.80
2024-02-10T16:24:41.297Z,10.90
2024-02-10T16:27:09.121Z,9.20
2024-02-10T16:29:36.962Z,6.70
2024-02-10T16:32:05.341Z,11.10
2024-02-10T16:34:39.535Z,10.10
2024-02-10T16:37:11.765Z,10.50
2024-02-10T16:39:39.688Z,8.90
2024-02-10T16:42:07.453Z,9.00
2024-02-10T16:44:35.368Z,11.70
2024-02-10T16:47:05.781Z,10.80
2024-02-10T16:49:34.400Z,10.60
2024-02-10T16:52:05.040Z,8.20
2024-02-10T16:54:33.365Z,9.70
2024-02-10T16:57:01.767Z,9.70
2024-02-10T16:59:29.928Z,10.00
2024-02-10T17:01:57.791Z,7.90
2024-02-10T17:04:25.700Z,9.80
2024-02-10T17:06:55.875Z,8.90
2024-02-10T17:09:24.089Z,9.90
2024-02-10T17:11:51.843Z,6.80
2024-02-10T17:14:19.620Z,9.10
2024-02-10T17:16:47.415Z,9.50
2024-02-10T17:19:20.013Z,9.10
2024-02-10T17:21:52.408Z,9.20
2024-02-10T17:24:21.581Z,10.20
2024-02-10T17:26:49.506Z,11.90
2024-02-10T17:29:17.852Z,8.20
2024-02-10T17:31:47.648Z,10.50
2024-02-10T17:34:15.782Z,13.80
2024-02-10T17:36:43.641Z,9.60
2024-02-10T17:39:11.817Z,8.60
2024-02-10T17:41:44.494Z,11.10
2024-02-10T17:44:15.135Z,11.70
2024-02-10T17:46:52.334Z,9.60
2024-02-10T17:49:21.576Z,11.20
2024-02-10T17:51:49.586Z,9.30
2024-02-10T17:54:20.665Z,10.40
2024-02-10T17:56:49.319Z,7.80
2024-02-10T17:59:19.735Z,9.50
2024-02-10T18:01:48.051Z,14.60
2024-02-10T18:04:16.453Z,9.60
2024-02-10T18:06:45.408Z,9.70
2024-02-10T18:09:14.515Z,8.10
2024-02-10T18:11:46.027Z,10.90
2024-02-10T18:14:16.671Z,9.30
2024-02-10T18:16:46.294Z,9.10
2024-02-10T18:19:14.297Z,8.70
2024-02-10T18:21:42.387Z,10.00
2024-02-10T18:24:10.420Z,12.00
2024-02-10T18:26:40.827Z,10.20
2024-02-10T18:29:08.658Z,8.70
2024-02-10T18:31:36.690Z,10.90
2024-02-10T18:34:04.555Z,8.40
2024-02-10T18:36:32.397Z,12.00
2024-02-10T18:39:00.602Z,7.20
2024-02-10T18:41:28.533Z,8.30
2024-02-10T18:44:03.251Z,10.30
2024-02-10T18:46:32.513Z,10.70
2024-02-10T18:49:01.152Z,7.60
2024-02-10T18:51:29.582Z,10.40
2024-02-10T18:53:58.209Z,11.70
2024-02-10T18:56:26.443Z,6.40
2024-02-10T18:58:56.089Z,7.70
2024-02-10T19:01:27.294Z,14.80
2024-02-10T19:03:55.871Z,9.40
2024-02-10T19:06:24.227Z,9.90
2024-02-10T19:08:53.553Z,8.40
2024-02-10T19:11:21.512Z,9.90
2024-02-10T19:13:49.670Z,10.50
2024-02-10T19:16:17.517Z,10.40
2024-02-10T19:18:47.495Z,14.10
2024-02-10T19:21:16.338Z,9.70
2024-02-10T19:23:48.124Z,11.10
2024-02-10T19:26:18.016Z,17.30
2024-02-10T19:28:47.162Z,12.60
2024-02-10T19:31:15.856Z,11.40
2024-02-10T19:33:44.014Z,11.80
2024-02-10T19:36:12.313Z,15.00
2024-02-10T19:38:40.876Z,14.60
2024-02-10T19:41:09.460Z,10.40
2024-02-10T19:43:37.438Z,10.80
2024-02-10T19:46:06.287Z,10.50
2024-02-10T19:48:34.457Z,10.00
2024-02-10T19:51:04.379Z,8.60
2024-02-10T19:53:32.357Z,7.50
2024-02-10T19:56:00.146Z,12.30
2024-02-10T19:58:29.653Z,19.70
2024-02-10T20:01:01.144Z,11.70
2024-02-10T20:03:29.174Z,12.60
2024-02-10T20:05:58.388Z,10.80
2024-02-10T20:08:26.547Z,9.00
2024-02-10T20:10:55.510Z,10.20
2024-02-10T20:13:23.573Z,9.90
2024-02-10T20:15:51.570Z,9.40
2024-02-10T20:18:20.510Z,9.00
2024-02-10T20:20:48.432Z,9.80
2024-02-10T20:23:18.043Z,9.00
2024-02-10T20:25:45.970Z,8.70
2024-02-10T20:28:14.018Z,7.20
2024-02-10T20:30:44.425Z,8.60
2024-02-10T20:33:13.059Z,9.20
2024-02-10T20:35:43.939Z,7.60
2024-02-10T20:38:12.023Z,8.70
2024-02-10T20:40:39.857Z,9.80
2024-02-10T20:43:07.849Z,10.70
2024-02-10T20:45:38.700Z,12.90
2024-02-10T20:48:07.999Z,7.10
2024-02-10T20:50:36.260Z,10.50
2024-02-10T20:53:04.360Z,10.20
2024-02-10T20:55:32.203Z,9.50
2024-02-10T20:57:59.931Z,8.40
2024-02-10T21:00:28.808Z,9.10
2024-02-10T21:02:57.735Z,9.50
2024-02-10T21:05:26.011Z,9.00
2024-02-10T21:07:53.767Z,7.20
2024-02-10T21:10:21.918Z,9.50
2024-02-10T21:12:50.829Z,8.60
2024-02-10T21:15:18.894Z,9.50
2024-02-10T21:17:47.762Z,7.40
2024-02-10T21:20:16.904Z,11.70
2024-02-10T21:22:48.633Z,6.30
2024-02-10T21:25:16.973Z,9.20
2024-02-10T21:27:44.788Z,9.60
2024-02-10T21:30:14.477Z,11.50
2024-02-10T21:32:44.257Z,8.80
2024-02-10T21:35:12.585Z,10.30
2024-02-10T21:37:41.493Z,10.70
2024-02-10T21:40:09.763Z,10.50
2024-02-10T21:42:37.782Z,9.50
2024-02-10T21:45:06.435Z,9.00
2024-02-10T21:47:37.567Z,11.40
2024-02-10T21:50:06.212Z,13.90
2024-02-10T21:52:34.220Z,16.90
2024-02-10T21:55:02.013Z,12.00
2024-02-10T21:57:37.020Z,12.30
2024-02-10T22:00:12.081Z,13.10
2024-02-10T22:02:40.270Z,12.70
2024-02-10T22:05:08.654Z,12.30
2024-02-10T22:07:40.219Z,13.40
2024-02-10T22:10:13.420Z,11.60
2024-02-10T22:15:21.424Z,13.40
2024-02-10T22:17:49.877Z,15.10
2024-02-10T22:20:19.369Z,19.70
2024-02-10T22:22:48.566Z,11.20
2024-02-10T22:25:18.132Z,13.50
2024-02-10T22:27:46.075Z,16.00
2024-02-10T22:30:20.255Z,12.60
2024-02-10T22:32:49.982Z,16.40
2024-02-10T22:35:20.258Z,14.40
2024-02-10T22:37:49.697Z,19.70
2024-02-10T22:40:23.495Z,13.50
2024-02-10T22:42:51.388Z,12.40
2024-02-10T22:45:20.303Z,21.20
2024-02-10T22:47:48.797Z,16.30
2024-02-10T22:50:19.861Z,14.40
2024-02-10T22:52:47.701Z,14.60
2024-02-10T22:55:18.510Z,13.50
2024-02-10T22:57:47.091Z,9.60
2024-02-10T23:00:30.102Z,9.70
2024-02-10T23:02:58.034Z,12.90
2024-02-10T23:05:26.141Z,18.30
2024-02-10T23:07:55.023Z,11.90
2024-02-10T23:10:22.811Z,12.30
2024-02-10T23:12:51.126Z,10.60
2024-02-10T23:15:23.596Z,18.50
2024-02-10T23:17:52.260Z,10.00
2024-02-10T23:20:20.465Z,12.70
2024-02-10T23:22:48.153Z,10.00
2024-02-10T23:25:16.326Z,11.10
2024-02-10T23:27:44.823Z,12.00
2024-02-10T23:30:12.787Z,12.50
2024-02-10T23:32:40.822Z,11.60
2024-02-10T23:35:10.507Z,13.40
2024-02-10T23:37:38.522Z,12.50
2024-02-10T23:40:15.089Z,9.10
2024-02-10T23:42:43.820Z,14.80
2024-02-10T23:45:11.698Z,8.60
2024-02-10T23:47:43.911Z,10.50
2024-02-10T23:50:15.546Z,7.60
2024-02-10T23:52:43.774Z,12.20
2024-02-10T23:55:14.341Z,6.60
2024-02-10T23:57:42.372Z,9.20
